DADOS DO TEMPO

ONTEM
Time Temp. Dewp. Hum. Direção Velocidade Wind gust Bar. 1h Prec. 24h Prec.
00:06 15.5 10.3 71 239 2.2 4.7 1012.1 0.0000 0.0000
00:16 15.4 10.2 71 249 2.5 6.7 1012.2 0.0000 0.0000
00:26 15.3 10.3 72 248 1.9 5.8 1012.3 0.0000 0.0000
00:36 15.2 10.2 72 250 2.5 5 1012.3 0.0000 0.0000
00:46 15.1 10.3 73 249 1.9 5 1012.3 0.0000 0.0000
00:56 15 10.2 73 253 2.2 5 1012.3 0.0000 0.0000
01:07 14.9 10.3 74 250 2.2 4.7 1012.5 0.0000 0.0000
01:17 14.8 10.2 74 244 2.2 5.3 1012.5 0.0000 0.0000
01:26 14.8 10.4 75 249 1.9 4.2 1012.5 0.0000 0.0000
01:37 14.7 10.3 75 243 2.5 5.3 1012.5 0.0000 0.0000
01:47 14.6 10.2 75 250 1.9 4.4 1012.5 0.0000 0.0000
01:57 14.6 10.4 76 247 2.5 4.7 1012.5 0.0000 0.0000
02:07 14.5 10.3 76 250 1.9 4.2 1012.5 0.0000 0.0000
02:17 14.5 10.3 76 252 2.5 4.2 1012.5 0.0000 0.0000
02:27 14.4 10.4 77 248 2.5 5.3 1012.6 0.0000 0.0000
02:37 14.4 10.4 77 256 2.5 4.4 1012.6 0.0000 0.0000
02:47 14.3 10.3 77 251 2.2 4.2 1012.6 0.0000 0.0000
02:58 14.3 10.3 77 249 2.5 4.2 1012.6 0.0000 0.0000
03:07 14.3 10.5 78 257 2.2 4.4 1012.6 0.0000 0.0000
03:17 14.3 10.5 78 254 2.2 4.4 1012.7 0.0000 0.0000
03:28 14.2 10.4 78 259 2.2 3.9 1012.6 0.0000 0.0000
03:38 14.2 10.4 78 252 2.2 4.2 1012.7 0.0000 0.0000
03:48 14.1 10.3 78 254 2.5 4.4 1012.7 0.0000 0.0000
03:58 14.1 10.3 78 249 2.2 5.3 1012.7 0.0000 0.0000
04:08 14 10.2 78 249 2.5 4.2 1012.6 0.0000 0.0000
04:18 14 10.2 78 246 2.5 4.7 1012.5 0.0000 0.0000
04:28 13.9 10.1 78 251 2.2 5 1012.6 0.0000 0.0000
04:39 13.8 10 78 250 2.2 4.2 1012.7 0.0000 0.0000
04:48 13.8 10 78 251 2.5 4.7 1012.7 0.0000 0.0000
04:58 13.7 9.9 78 250 2.2 3.9 1012.8 0.0000 0.0000
05:08 13.6 9.6 77 261 2.2 3.9 1012.8 0.0000 0.0000
05:19 13.5 9.6 77 254 2.2 4.2 1012.9 0.0000 0.0000
05:29 13.5 9.6 77 255 2.8 4.4 1013 0.0000 0.0000
05:39 13.4 9.5 77 255 2.5 4.4 1013.2 0.0000 0.0000
05:49 13.3 9.2 76 261 2.5 4.7 1013.2 0.0000 0.0000
05:59 13.3 9.2 76 252 2.5 5 1013.3 0.0000 0.0000
06:09 13.2 9.1 76 252 2.2 3.9 1013.3 0.0000 0.0000
06:19 13.2 9.1 76 248 2.2 4.2 1013.3 0.0000 0.0000
06:30 13.1 9 76 250 2.2 4.2 1013.4 0.0000 0.0000
06:39 13.1 9 76 252 2.2 4.2 1013.5 0.0000 0.0000
06:49 13.1 9 76 256 2.2 5.6 1013.5 0.0000 0.0000
07:00 13.1 9 76 257 2.2 4.2 1013.5 0.0000 0.0000
07:10 13.1 9 76 257 2.2 4.7 1013.6 0.0000 0.0000
07:20 13.2 9.1 76 255 2.5 4.4 1013.7 0.0000 0.0000
07:29 13.3 9.4 77 259 2.5 3.9 1013.8 0.0000 0.0000
07:40 13.3 9.4 77 257 2.2 4.2 1013.8 0.0000 0.0000
07:50 13.5 9.6 77 257 2.5 5 1013.9 0.0000 0.0000
08:00 13.6 9.5 76 262 2.5 5.6 1014.1 0.0000 0.0000
08:10 13.8 9.8 77 249 2.2 4.2 1014.2 0.0000 0.0000
08:20 14 9.8 76 249 2.2 4.4 1014.2 0.0000 0.0000
08:30 14.1 9.9 76 252 2.2 5 1014.4 0.0000 0.0000
08:40 14.2 10 76 253 2.2 4.4 1014.5 0.0000 0.0000
08:51 14.4 10.2 76 244 2.5 6.9 1014.6 0.0000 0.0000
09:01 14.5 10.3 76 259 2.5 5.6 1014.7 0.0000 0.0000
09:10 14.6 10.2 75 247 2.2 4.7 1014.8 0.0000 0.0000
09:20 14.8 10.4 75 255 2.5 5 1014.9 0.0000 0.0000
09:31 15 10.4 74 249 1.9 4.2 1014.8 0.0000 0.0000
09:41 15.1 10.5 74 252 2.2 4.2 1014.9 0.0000 0.0000
09:51 15.2 10.4 73 260 2.2 4.7 1015.1 0.0000 0.0000
10:01 15.1 10.3 73 249 2.2 4.2 1015.2 0.0000 0.0000
10:11 15.2 10.6 74 265 1.7 3.1 1015.2 0.0000 0.0000
10:21 15.3 10.7 74 248 1.9 5 1015.3 0.0000 0.0000
10:31 15.5 10.7 73 256 1.9 5.3 1015.4 0.0000 0.0000
10:42 15.6 10.4 71 245 1.9 4.2 1015.5 0.0000 0.0000
10:51 15.6 10.4 71 253 2.2 5.6 1015.6 0.0000 0.0000
11:01 15.9 10.7 71 251 1.9 3.1 1015.8 0.0000 0.0000
11:11 15.6 10.6 72 248 2.2 4.2 1015.9 0.1010 0.1000
11:22 15.7 10.9 73 280 1.9 3.6 1016 0.1010 0.1000
11:32 15.6 10.6 72 270 1.4 3.1 1016 0.1010 0.1000
11:42 15.7 10.9 73 282 2.2 5.3 1016.1 0.1010 0.1000
11:53 15.8 10.8 72 277 1.9 3.6 1016.1 0.1010 0.1000
11:59 15.9 10.7 71 277 1.7 3.1 1016.2 0.4040 0.4000
12:07 15.5 10.9 74 275 1.7 3.6 1016.3 1.1110 1.2000
12:18 15.4 11 75 262 1.9 4.2 1016.5 1.1110 1.2000
12:28 15.3 10.9 75 250 1.7 3.6 1016.7 1.1110 1.2000
12:38 15.4 11 75 249 1.9 3.9 1016.7 1.1110 1.2000
12:54 15.9 11.9 77 263 2.2 7.2 1016.9 1.1110 1.2000
13:04 16.5 11.4 72 264 5.3 11.4 1016.9 0.0000 1.2000
13:15 17.1 10.9 67 250 3.1 6.7 1016.9 0.0000 1.2000
13:25 17.4 11.2 67 252 2.8 7.2 1017 0.0000 1.2000
13:27 17.4 11 66 259 4.4 14.4 1017.1 0.0000 1.2000
13:35 17.2 10.3 64 246 6.1 13.3 1017.3 0.0000 1.2000
13:48 17.7 10.6 63 259 3.9 13.6 1017.4 0.0000 1.2000
14:01 17.4 10.5 64 263 2.8 12.5 1017.5 0.0000 1.2000
14:25 17.5 10.4 63 254 4.7 10.8 1017.8 0.0000 1.2000
14:32 18 9.9 59 248 4.2 10.8 1017.8 0.0000 1.2000
14:43 18 10.4 61 264 4.4 8.9 1017.9 0.0000 1.2000
14:52 18 10.1 60 258 5 10.3 1017.9 0.0000 1.2000
15:02 18.4 9.2 55 247 2.8 6.4 1018 0.0000 1.2000
15:06 18.3 9.1 55 273 3.9 10.8 1018 0.0000 1.2000
15:16 18.2 9.3 56 238 6.4 12.5 1018.1 0.0000 1.2000
15:26 18.3 9.6 57 273 5 9.7 1018.2 0.0000 1.2000
15:39 18.4 10 58 265 5 12.8 1018.3 0.0000 1.2000
15:49 18.2 9.3 56 250 4.2 8.3 1018.3 0.0000 1.2000
15:58 18.3 9.6 57 276 4.7 10.3 1018.5 0.0000 1.2000
16:08 18.1 9.7 58 254 5.3 15 1018.6 0.0000 1.2000
16:18 18.4 10.3 59 266 3.9 10.3 1018.6 0.0000 1.2000
16:32 18.6 9.7 56 263 5 13.1 1018.7 0.0000 1.2000
16:42 18.5 9.8 57 261 5.3 8.9 1018.8 0.0000 1.2000
16:53 18.3 9.9 58 262 4.2 6.7 1018.9 0.0000 1.2000
16:59 18.3 9.4 56 260 3.3 5.3 1018.9 0.0000 1.2000
17:12 18.3 10.2 59 253 3.3 10.8 1019 0.0000 1.2000
17:22 18.5 10.1 58 254 5.8 11.7 1019 0.0000 1.2000
17:32 18.5 9.6 56 245 6.4 13.3 1019.1 0.0000 1.2000
17:45 18.4 9.7 57 267 3.3 13.3 1019.1 0.0000 1.2000
17:55 18.3 9.4 56 277 2.5 5.8 1019.3 0.0000 1.2000
18:05 18.2 9.8 58 270 1.7 3.1 1019.3 0.0000 1.2000
18:09 18.3 9.9 58 270 2.2 6.4 1019.4 0.0000 1.2000
18:19 18.3 9.4 56 270 2.5 5.6 1019.5 0.0000 1.2000
18:28 18.4 9.7 57 264 4.2 8.3 1019.6 0.0000 1.2000
18:39 18.7 10 57 274 3.6 7.5 1019.7 0.0000 1.2000
18:50 19 10 56 2.5 4.7 1019.7 0.0000 1.2000
18:59 19.1 10.1 56 273 3.1 7.5 1019.7 0.0000 1.2000
19:09 19.2 10.2 56 210 2.8 6.7 1019.7 0.0000 1.2000
19:19 19.2 9.7 54 248 2.8 8.3 1019.9 0.0000 1.2000
19:27 19.3 10 55 225 3.3 10.3 1019.9 0.0000 1.2000
19:38 19.3 10 55 256 4.4 12.2 1019.8 0.0000 1.2000
19:49 19.3 10 55 276 2.2 5 1019.8 0.0000 1.2000
19:59 19.1 9.9 55 261 1.4 3.1 1020 0.0000 1.2000
20:08 18.8 9.8 56 284 1.4 2.8 1020.1 0.0000 1.2000
20:18 18.6 9.9 57 278 1.7 3.3 1020.2 0.0000 1.2000
20:29 18.3 9.9 58 270 1.7 3.3 1020.3 0.0000 1.2000
20:39 18.2 10.1 59 270 1.4 2.5 1020.3 0.0000 1.2000
20:48 18 9.6 58 265 1.7 2.8 1020.5 0.0000 1.2000
20:59 17.8 9.9 60 261 1.4 2.8 1020.6 0.0000 1.2000
21:09 17.7 10.1 61 270 1.7 2.8 1020.6 0.0000 1.2000
21:19 17.6 10.2 62 264 1.4 2.2 1020.6 0.0000 1.2000
21:29 17.5 10.1 62 262 1.4 2.2 1020.6 0.0000 1.2000
21:39 17.4 10.3 63 259 1.7 2.5 1020.6 0.0000 1.2000
21:49 17.3 10.4 64 252 1.4 2.8 1020.7 0.0000 1.2000
21:59 17.1 10.2 64 263 1.4 2.2 1020.8 0.0000 1.2000
22:10 17 10.4 65 260 1.4 2.2 1020.9 0.0000 1.2000
22:19 16.9 10.5 66 256 1.4 2.2 1021.1 0.0000 1.2000
22:29 16.7 10.8 68 260 1.4 2.5 1021.1 0.0000 1.2000
22:39 16.6 10.9 69 259 1.7 2.5 1021.3 0.0000 1.2000
22:50 16.4 10.9 70 256 1.7 2.5 1021.3 0.0000 1.2000
23:00 16.3 11 71 256 1.7 3.1 1021.3 0.0000 1.2000
23:09 16.3 11.2 72 258 1.7 2.5 1021.4 0.0000 1.2000
23:20 16.2 11.4 73 259 1.7 2.5 1021.4 0.0000 1.2000
23:30 16.1 11.3 73 262 1.4 2.2 1021.4 0.0000 1.2000
23:40 16.1 11.3 73 258 1.7 2.5 1021.4 0.0000 1.2000
23:50 16 11.6 75 258 1.7 2.2 1021.3 0.0000 1.2000

ESTATÍSTICAS DO DIA

2020-07-06
TEMPERATURA
MÉDIA
16.0
MÁXIMO
19.3
19:27
MÍNIMO
13.1
06:30
PRESSÃO
MÉDIA
1016.4
MÁXIMO
1021.4
23:09
MÍNIMO
1012.1
00:06
PONTO DE ORVALHO
MÉDIA
10.2
MÁXIMO
11.9
12:54
MÍNIMO
9.0
06:30
UMIDADE
MÉDIA
69
MÁXIMO
78
03:07
MÍNIMO
54
19:19
VELOCIDADE DOS VENTOS
MÉDIA
2.6
MÁXIMO
6.4
15:16
WIND GUST
MÉDIA
5.7
MÁXIMO
15.0
16:08
DIREÇÃO DOS VENTOS
PREDOMINANTE
O
89.4%
N
0.0
NE
0.0
E
0.0
SE
0.0
S
0.0
SO
9.9
O
89.4
NO
0.0
PRECIPITAÇÃO
PRECIPITAÇÃO HORÁRIA
1.1
PRECIPITAÇÃO DIÁRIA
1.2
TEMPERATURA (°C)
MÍNIMO
13.1
MÁXIMO
19.3
MÉDIA
16.0
PRESSÃO (hpa)
MÍNIMO
1012.1
MÁXIMO
1021.4
MÉDIA
1016.4
DEVICE